Nisshoumaru — JD3093 — position and weather

sailwx.info

Track history (hours):
 
Tides and Currents Weather Stations Pressure Air Temp Water Temp Dewpoint Dewpoint Depression Visibility Wind Speed Wind Dir Waves Ship Positions

Nisshoumaru

Last reported at 2015-Aug-13 01:10 UTC. Time now 2015-Sep-03 17:15 UTC.
Position N 35°26' E 140°42'.
Warning: this ship's position is 21 days out of date.

Length 76 m; draft 4 m.

Type: Cargo ship. MMSI: 431001549.

Date/timePositionNaut miles runAvg speedWind from/ knotsBaromVisibWave heightAir tempDewpointWater temp
2015-Aug-13 01:10N 35°26' E 140°42'1312.1
2015-Aug-13 00:06N 35°16' E 140°32'2112.8
2015-Aug-12 22:27N 35°02' E 140°13'1413.9
2015-Aug-12 21:26N 34°54' E 139°58'1311.6
2015-Aug-12 20:20N 34°58' E 139°43'1012.4
2015-Aug-12 19:34N 35°07' E 139°45'1211.6
2015-Aug-12 18:33N 35°19' E 139°43'6 6.3
2015-Aug-12 17:33N 35°23' E 139°49'2 1.7
2015-Aug-12 16:33N 35°22' E 139°51'0 0.0
2015-Aug-12 15:34N 35°22' E 139°51'0 0.0
2015-Aug-12 14:33N 35°22' E 139°51'0 0.0
2015-Aug-12 13:33N 35°22' E 139°51'0 0.0
2015-Aug-12 12:33N 35°22' E 139°51'0 0.0
2015-Aug-12 11:33N 35°22' E 139°51'0 0.0
2015-Aug-12 10:34N 35°22' E 139°51'0 0.0
2015-Aug-12 09:34N 35°22' E 139°51'0 0.0
2015-Aug-12 08:34N 35°22' E 139°51'0 0.0
2015-Aug-12 07:33N 35°22' E 139°51'0 0.0
2015-Aug-12 06:33N 35°22' E 139°51'0 0.0
2015-Aug-12 05:33N 35°22' E 139°51'0 0.0
2015-Aug-12 04:33N 35°22' E 139°51'0 0.0
2015-Aug-12 03:34N 35°22' E 139°51'0 0.0
2015-Aug-12 02:33N 35°22' E 139°51'0 0.0
2015-Aug-12 01:34N 35°22' E 139°51'0 0.0
2015-Aug-12 00:33N 35°22' E 139°51'0 0.0
2015-Aug-11 23:34N 35°22' E 139°51'0 0.0
2015-Aug-11 22:33N 35°22' E 139°51'0 0.0
2015-Aug-11 21:33N 35°22' E 139°51'0 0.0
2015-Aug-11 20:33N 35°22' E 139°51'0 0.0
2015-Aug-11 19:33N 35°22' E 139°51'0 0.0
2015-Aug-11 18:34N 35°22' E 139°51'0 0.0
2015-Aug-11 17:33N 35°22' E 139°51'0 0.0
2015-Aug-11 16:34N 35°22' E 139°51'1 1.3
2015-Aug-11 15:34N 35°22' E 139°49'0 0.0
2015-Aug-11 14:33N 35°22' E 139°49'0 0.0
2015-Aug-11 13:34N 35°22' E 139°49'0 0.0
2015-Aug-11 12:34N 35°22' E 139°49'0 0.1
2015-Aug-11 11:34N 35°22' E 139°49'0 0.0
2015-Aug-11 10:33N 35°22' E 139°49'0 0.0
2015-Aug-11 09:33N 35°22' E 139°49'5 5.4
2015-Aug-11 08:34N 35°27' E 139°50'1111.0
2015-Aug-11 07:34N 35°38' E 139°48'0 0.1
2015-Aug-11 06:33N 35°38' E 139°48'0 0.0
2015-Aug-11 05:34N 35°38' E 139°48'0 0.0
2015-Aug-11 04:34N 35°38' E 139°48'0 0.0
2015-Aug-11 03:33N 35°38' E 139°48'0 0.0
2015-Aug-11 02:33N 35°38' E 139°48'0 0.0
2015-Aug-11 01:33N 35°38' E 139°48'0 0.0
2015-Aug-11 00:33N 35°38' E 139°48'0 0.0
2015-Aug-10 23:33N 35°38' E 139°48'0 0.0
2015-Aug-10 22:33N 35°38' E 139°48'0 0.0
2015-Aug-10 21:33N 35°38' E 139°48'0 0.0
2015-Aug-10 20:34N 35°38' E 139°48'0 0.0
2015-Aug-10 19:33N 35°38' E 139°48'0 0.0
2015-Aug-10 18:34N 35°38' E 139°48'0 0.0
2015-Aug-10 17:33N 35°38' E 139°48'0 0.0
2015-Aug-10 16:33N 35°38' E 139°48'0 0.0
2015-Aug-10 15:34N 35°38' E 139°48'0 0.0
2015-Aug-10 14:33N 35°38' E 139°48'0 0.0
2015-Aug-10 13:33N 35°38' E 139°48'0 0.0
2015-Aug-10 12:34N 35°38' E 139°48'0 0.0
2015-Aug-10 11:33N 35°38' E 139°48'0 0.0
2015-Aug-10 10:33N 35°38' E 139°48'0 0.0
2015-Aug-10 09:33N 35°38' E 139°48'5 5.2
2015-Aug-10 08:33N 35°35' E 139°54'9 9.0
2015-Aug-10 07:33N 35°37' E 140°05'0 0.0
2015-Aug-10 06:33N 35°37' E 140°05'3 3.0
2015-Aug-10 05:33N 35°35' E 140°02'0 0.0
2015-Aug-10 04:34N 35°35' E 140°02'0 0.0
2015-Aug-10 03:33N 35°35' E 140°02'3 3.4
2015-Aug-10 02:33N 35°38' E 139°58'2 2.0
2015-Aug-10 01:33N 35°40' E 139°58'1 1.3
2015-Aug-10 00:31N 35°41' E 139°57'0 0.0
2015-Aug-09 23:33N 35°41' E 139°57'0 0.0
2015-Aug-09 22:34N 35°41' E 139°57'0 0.0
2015-Aug-09 21:33N 35°41' E 139°57'0 0.0
2015-Aug-09 20:33N 35°41' E 139°57'0 0.0
2015-Aug-09 19:33N 35°41' E 139°57'0 0.0
2015-Aug-09 18:34N 35°41' E 139°57'0 0.0
2015-Aug-09 17:33N 35°41' E 139°57'0 0.0
2015-Aug-09 16:33N 35°41' E 139°57'0 0.0
2015-Aug-09 15:33N 35°41' E 139°57'0 0.0
2015-Aug-09 14:34N 35°41' E 139°57'0 0.0
2015-Aug-09 13:33N 35°41' E 139°57'0 0.0
2015-Aug-09 12:33N 35°41' E 139°57'0 0.0
2015-Aug-09 11:33N 35°41' E 139°57'0 0.0
2015-Aug-09 10:33N 35°41' E 139°57'0 0.0
2015-Aug-09 09:33N 35°41' E 139°57'0 0.0
2015-Aug-09 08:34N 35°41' E 139°57'0 0.0
2015-Aug-09 07:33N 35°41' E 139°57'0 0.0
2015-Aug-09 06:33N 35°41' E 139°57'0 0.0
2015-Aug-09 05:34N 35°41' E 139°57'0 0.0
2015-Aug-09 04:33N 35°41' E 139°57'0 0.0
2015-Aug-09 03:33N 35°41' E 139°57'0 0.0
2015-Aug-09 02:33N 35°41' E 139°57'0 0.0
2015-Aug-09 01:33N 35°41' E 139°57'3 2.7
2015-Aug-09 00:33N 35°38' E 139°58'1 1.0
2015-Aug-08 23:33N 35°37' E 139°58'0 0.0
2015-Aug-08 22:33N 35°37' E 139°58'0 0.0
2015-Aug-08 21:33N 35°37' E 139°58'0 0.1
2015-Aug-08 20:34N 35°37' E 139°58'0 0.0
2015-Aug-08 19:33N 35°37' E 139°58'3 3.3
2015-Aug-08 18:34N 35°34' E 139°56'1211.6
2015-Aug-08 17:34N 35°25' E 139°47'10 9.9
2015-Aug-08 16:33N 35°15' E 139°47'1111.1
2015-Aug-08 15:33N 35°05' E 139°44'1010.2
2015-Aug-08 14:32N 34°54' E 139°46'1410.6
2015-Aug-08 13:13N 34°57' E 140°03'711.4
2015-Aug-08 12:33N 35°01' E 140°11'2612.5
2015-Aug-08 10:31N 35°19' E 140°33'  
Track history (hours):
 
Tides and Currents Weather Stations Pressure Air Temp Water Temp Dewpoint Dewpoint Depression Visibility Wind Speed Wind Dir Waves Ship Positions

Nisshoumaru

Last reported at 2015-Aug-13 01:10 UTC. Time now 2015-Sep-03 17:15 UTC.
Position N 35°26' E 140°42'.
Warning: this ship's position is 21 days out of date.

Length 76 m; draft 4 m.

Type: Cargo ship. MMSI: 431001549.

Date/timePositionNaut miles runAvg speedWind from/ knotsBaromVisibWave heightAir tempDewpointWater temp
2015-Aug-13 01:10N 35°26' E 140°42'1312.1
2015-Aug-13 00:06N 35°16' E 140°32'2112.8
2015-Aug-12 22:27N 35°02' E 140°13'1413.9
2015-Aug-12 21:26N 34°54' E 139°58'1311.6
2015-Aug-12 20:20N 34°58' E 139°43'1012.4
2015-Aug-12 19:34N 35°07' E 139°45'1211.6
2015-Aug-12 18:33N 35°19' E 139°43'6 6.3
2015-Aug-12 17:33N 35°23' E 139°49'2 1.7
2015-Aug-12 16:33N 35°22' E 139°51'0 0.0
2015-Aug-12 15:34N 35°22' E 139°51'0 0.0
2015-Aug-12 14:33N 35°22' E 139°51'0 0.0
2015-Aug-12 13:33N 35°22' E 139°51'0 0.0
2015-Aug-12 12:33N 35°22' E 139°51'0 0.0
2015-Aug-12 11:33N 35°22' E 139°51'0 0.0
2015-Aug-12 10:34N 35°22' E 139°51'0 0.0
2015-Aug-12 09:34N 35°22' E 139°51'0 0.0
2015-Aug-12 08:34N 35°22' E 139°51'0 0.0
2015-Aug-12 07:33N 35°22' E 139°51'0 0.0
2015-Aug-12 06:33N 35°22' E 139°51'0 0.0
2015-Aug-12 05:33N 35°22' E 139°51'0 0.0
2015-Aug-12 04:33N 35°22' E 139°51'0 0.0
2015-Aug-12 03:34N 35°22' E 139°51'0 0.0
2015-Aug-12 02:33N 35°22' E 139°51'0 0.0
2015-Aug-12 01:34N 35°22' E 139°51'0 0.0
2015-Aug-12 00:33N 35°22' E 139°51'0 0.0
2015-Aug-11 23:34N 35°22' E 139°51'0 0.0
2015-Aug-11 22:33N 35°22' E 139°51'0 0.0
2015-Aug-11 21:33N 35°22' E 139°51'0 0.0
2015-Aug-11 20:33N 35°22' E 139°51'0 0.0
2015-Aug-11 19:33N 35°22' E 139°51'0 0.0
2015-Aug-11 18:34N 35°22' E 139°51'0 0.0
2015-Aug-11 17:33N 35°22' E 139°51'0 0.0
2015-Aug-11 16:34N 35°22' E 139°51'1 1.3
2015-Aug-11 15:34N 35°22' E 139°49'0 0.0
2015-Aug-11 14:33N 35°22' E 139°49'0 0.0
2015-Aug-11 13:34N 35°22' E 139°49'0 0.0
2015-Aug-11 12:34N 35°22' E 139°49'0 0.1
2015-Aug-11 11:34N 35°22' E 139°49'0 0.0
2015-Aug-11 10:33N 35°22' E 139°49'0 0.0
2015-Aug-11 09:33N 35°22' E 139°49'5 5.4
2015-Aug-11 08:34N 35°27' E 139°50'1111.0
2015-Aug-11 07:34N 35°38' E 139°48'0 0.1
2015-Aug-11 06:33N 35°38' E 139°48'0 0.0
2015-Aug-11 05:34N 35°38' E 139°48'0 0.0
2015-Aug-11 04:34N 35°38' E 139°48'0 0.0
2015-Aug-11 03:33N 35°38' E 139°48'0 0.0
2015-Aug-11 02:33N 35°38' E 139°48'0 0.0
2015-Aug-11 01:33N 35°38' E 139°48'0 0.0
2015-Aug-11 00:33N 35°38' E 139°48'0 0.0
2015-Aug-10 23:33N 35°38' E 139°48'0 0.0
2015-Aug-10 22:33N 35°38' E 139°48'0 0.0
2015-Aug-10 21:33N 35°38' E 139°48'0 0.0
2015-Aug-10 20:34N 35°38' E 139°48'0 0.0
2015-Aug-10 19:33N 35°38' E 139°48'0 0.0
2015-Aug-10 18:34N 35°38' E 139°48'0 0.0
2015-Aug-10 17:33N 35°38' E 139°48'0 0.0
2015-Aug-10 16:33N 35°38' E 139°48'0 0.0
2015-Aug-10 15:34N 35°38' E 139°48'0 0.0
2015-Aug-10 14:33N 35°38' E 139°48'0 0.0
2015-Aug-10 13:33N 35°38' E 139°48'0 0.0
2015-Aug-10 12:34N 35°38' E 139°48'0 0.0
2015-Aug-10 11:33N 35°38' E 139°48'0 0.0
2015-Aug-10 10:33N 35°38' E 139°48'0 0.0
2015-Aug-10 09:33N 35°38' E 139°48'5 5.2
2015-Aug-10 08:33N 35°35' E 139°54'9 9.0
2015-Aug-10 07:33N 35°37' E 140°05'0 0.0
2015-Aug-10 06:33N 35°37' E 140°05'3 3.0
2015-Aug-10 05:33N 35°35' E 140°02'0 0.0
2015-Aug-10 04:34N 35°35' E 140°02'0 0.0
2015-Aug-10 03:33N 35°35' E 140°02'3 3.4
2015-Aug-10 02:33N 35°38' E 139°58'2 2.0
2015-Aug-10 01:33N 35°40' E 139°58'1 1.3
2015-Aug-10 00:31N 35°41' E 139°57'0 0.0
2015-Aug-09 23:33N 35°41' E 139°57'0 0.0
2015-Aug-09 22:34N 35°41' E 139°57'0 0.0
2015-Aug-09 21:33N 35°41' E 139°57'0 0.0
2015-Aug-09 20:33N 35°41' E 139°57'0 0.0
2015-Aug-09 19:33N 35°41' E 139°57'0 0.0
2015-Aug-09 18:34N 35°41' E 139°57'0 0.0
2015-Aug-09 17:33N 35°41' E 139°57'0 0.0
2015-Aug-09 16:33N 35°41' E 139°57'0 0.0
2015-Aug-09 15:33N 35°41' E 139°57'0 0.0
2015-Aug-09 14:34N 35°41' E 139°57'0 0.0
2015-Aug-09 13:33N 35°41' E 139°57'0 0.0
2015-Aug-09 12:33N 35°41' E 139°57'0 0.0
2015-Aug-09 11:33N 35°41' E 139°57'0 0.0
2015-Aug-09 10:33N 35°41' E 139°57'0 0.0
2015-Aug-09 09:33N 35°41' E 139°57'0 0.0
2015-Aug-09 08:34N 35°41' E 139°57'0 0.0
2015-Aug-09 07:33N 35°41' E 139°57'0 0.0
2015-Aug-09 06:33N 35°41' E 139°57'0 0.0
2015-Aug-09 05:34N 35°41' E 139°57'0 0.0
2015-Aug-09 04:33N 35°41' E 139°57'0 0.0
2015-Aug-09 03:33N 35°41' E 139°57'0 0.0
2015-Aug-09 02:33N 35°41' E 139°57'0 0.0
2015-Aug-09 01:33N 35°41' E 139°57'3 2.7
2015-Aug-09 00:33N 35°38' E 139°58'1 1.0
2015-Aug-08 23:33N 35°37' E 139°58'0 0.0
2015-Aug-08 22:33N 35°37' E 139°58'0 0.0
2015-Aug-08 21:33N 35°37' E 139°58'0 0.1
2015-Aug-08 20:34N 35°37' E 139°58'0 0.0
2015-Aug-08 19:33N 35°37' E 139°58'3 3.3
2015-Aug-08 18:34N 35°34' E 139°56'1211.6
2015-Aug-08 17:34N 35°25' E 139°47'10 9.9
2015-Aug-08 16:33N 35°15' E 139°47'1111.1
2015-Aug-08 15:33N 35°05' E 139°44'1010.2
2015-Aug-08 14:32N 34°54' E 139°46'1410.6
2015-Aug-08 13:13N 34°57' E 140°03'711.4
2015-Aug-08 12:33N 35°01' E 140°11'2612.5
2015-Aug-08 10:31N 35°19' E 140°33'  

Dump ship's entire track history